Time;durP1;ratioP1;P1;durP2;ratioP2;P2;SDS_P1;SDS_P2;PMS_P1;PMS_P2;Temp;Humidity;BMP_temperature;BMP_pressure;BME280_temperature;BME280_humidity;BME280_pressure;Samples;Min_cycle;Max_cycle;Signal;HPM_P1;HPM_P2
2022/06/05 00:02:22;;;;;;;0.88;0.30;;;15.20;99.90;;;;;;5111201;28;20532;-76
2022/06/05 00:05:00;;;;;;;0.50;0.40;;;15.20;99.90;;;;;;5113285;28;20198;-76
2022/06/05 00:07:39;;;;;;;0.80;0.30;;;15.30;99.90;;;;;;5112993;27;20253;-76
2022/06/05 00:10:15;;;;;;;0.93;0.20;;;15.30;99.90;;;;;;5109919;28;20219;-76
2022/06/05 00:12:54;;;;;;;0.45;0.30;;;15.40;99.90;;;;;;5112283;28;20198;-76
2022/06/05 00:15:25;;;;;;;1.92;0.25;;;15.40;99.90;;;;;;5106465;28;20282;-76
2022/06/05 00:17:56;;;;;;;0.88;0.30;;;15.50;99.90;;;;;;5103965;28;20211;-75
2022/06/05 00:20:26;;;;;;;0.57;0.40;;;15.50;99.90;;;;;;5105542;28;20537;-75
2022/06/05 00:22:57;;;;;;;0.80;0.45;;;15.50;99.90;;;;;;5111986;28;20203;-75
2022/06/05 00:25:35;;;;;;;1.60;0.40;;;15.50;99.90;;;;;;5108925;28;20195;-75
2022/06/05 00:28:15;;;;;;;1.05;0.25;;;15.50;99.90;;;;;;5107086;28;20195;-75
2022/06/05 00:30:51;;;;;;;0.47;0.20;;;15.50;99.90;;;;;;5109717;28;20566;-75
2022/06/05 00:33:29;;;;;;;0.38;0.30;;;15.60;99.90;;;;;;5110588;28;20202;-75
2022/06/05 00:36:08;;;;;;;1.73;0.47;;;15.70;99.90;;;;;;5100347;28;20223;-76
2022/06/05 00:38:45;;;;;;;0.95;0.30;;;15.80;99.90;;;;;;5109244;28;20198;-75
2022/06/05 00:41:33;;;;;;;1.80;0.40;;;15.90;99.90;;;;;;5110730;28;20565;-76
2022/06/05 00:44:08;;;;;;;0.32;0.30;;;16.00;99.90;;;;;;5110449;28;20218;-76
2022/06/05 00:46:41;;;;;;;1.63;0.40;;;16.10;99.90;;;;;;5109142;28;20212;-76
2022/06/05 00:49:13;;;;;;;0.70;0.28;;;16.10;99.90;;;;;;5111059;28;20236;-76
2022/06/05 00:51:43;;;;;;;0.88;0.35;;;16.10;99.90;;;;;;5107787;28;20279;-76
2022/06/05 00:54:14;;;;;;;0.82;0.30;;;16.20;99.90;;;;;;5108374;28;20531;-76
2022/06/05 00:56:45;;;;;;;1.95;0.30;;;16.20;99.90;;;;;;5111469;28;20194;-76
2022/06/05 00:59:18;;;;;;;0.38;0.20;;;16.30;99.90;;;;;;5114984;27;20187;-76
2022/06/05 01:01:49;;;;;;;0.30;0.20;;;16.40;99.90;;;;;;5109487;28;20198;-76
2022/06/05 01:04:22;;;;;;;0.32;0.32;;;16.50;99.90;;;;;;5110863;28;20218;-76
2022/06/05 01:06:54;;;;;;;0.35;0.20;;;16.70;99.90;;;;;;5110978;28;20226;-76
2022/06/05 01:09:24;;;;;;;0.68;0.30;;;16.80;99.90;;;;;;5111233;27;20226;-76
2022/06/05 01:12:06;;;;;;;1.70;0.40;;;16.90;99.90;;;;;;5108815;28;20279;-76
2022/06/05 01:14:52;;;;;;;0.85;0.50;;;16.90;99.90;;;;;;5111229;28;20561;-76
2022/06/05 01:17:34;;;;;;;0.35;0.30;;;17.10;99.90;;;;;;5109583;28;20286;-76
2022/06/05 01:20:18;;;;;;;0.60;0.40;;;17.20;99.90;;;;;;5109946;28;20195;-75
2022/06/05 01:23:13;;;;;;;1.00;0.30;;;17.40;99.90;;;;;;5109552;28;20213;-76
2022/06/05 01:26:07;;;;;;;0.98;0.30;;;17.40;99.90;;;;;;5107773;28;20190;-76
2022/06/05 01:28:41;;;;;;;0.30;0.30;;;17.40;99.90;;;;;;5109394;28;20191;-75
2022/06/05 01:31:20;;;;;;;1.25;0.57;;;17.50;99.90;;;;;;5101275;28;20222;-75
2022/06/05 01:34:11;;;;;;;0.38;0.25;;;17.50;99.90;;;;;;5110195;28;20216;-75
2022/06/05 01:36:46;;;;;;;0.93;0.43;;;17.50;99.90;;;;;;5110123;28;20191;-76
2022/06/05 01:39:22;;;;;;;3.33;0.43;;;17.60;99.90;;;;;;5108389;28;20190;-76
2022/06/05 01:41:58;;;;;;;2.72;0.47;;;17.70;99.90;;;;;;5109762;28;20194;-76
2022/06/05 01:44:36;;;;;;;1.75;0.40;;;17.80;99.90;;;;;;5110478;28;20194;-76
2022/06/05 01:47:12;;;;;;;0.65;0.30;;;17.90;99.90;;;;;;5106301;28;20247;-76
2022/06/05 01:49:46;;;;;;;1.10;0.52;;;17.90;99.90;;;;;;5101424;28;20198;-76
2022/06/05 01:52:21;;;;;;;1.30;0.47;;;18.00;99.90;;;;;;5109825;28;20253;-76
2022/06/05 01:54:57;;;;;;;1.15;0.30;;;18.10;99.90;;;;;;5105286;28;20201;-76
2022/06/05 01:57:31;;;;;;;2.10;0.40;;;18.10;99.90;;;;;;5099014;28;20198;-76
2022/06/05 02:00:07;;;;;;;20.83;0.60;;;18.00;99.90;;;;;;5095973;28;20540;-76
2022/06/05 02:02:42;;;;;;;0.70;0.30;;;18.00;99.90;;;;;;5092874;28;20198;-76
2022/06/05 02:05:16;;;;;;;0.82;0.30;;;17.90;99.90;;;;;;5109218;28;20273;-76
2022/06/05 02:07:50;;;;;;;1.33;0.50;;;17.90;99.90;;;;;;5110809;28;20241;-76
2022/06/05 02:10:27;;;;;;;0.60;0.30;;;17.90;99.90;;;;;;5109728;28;20243;-76
2022/06/05 02:13:01;;;;;;;0.70;0.40;;;17.90;99.90;;;;;;5108368;28;20565;-76
2022/06/05 02:15:32;;;;;;;0.70;0.30;;;17.90;99.90;;;;;;5107783;28;20189;-76
2022/06/05 02:18:05;;;;;;;1.27;0.30;;;18.00;99.90;;;;;;5111135;28;20202;-76
2022/06/05 02:20:36;;;;;;;2.28;0.40;;;18.10;99.90;;;;;;5109199;28;20210;-76
2022/06/05 02:23:13;;;;;;;0.57;0.35;;;18.10;99.90;;;;;;5109418;28;20198;-76
2022/06/05 02:25:43;;;;;;;0.30;0.10;;;17.90;99.90;;;;;;5108757;28;20210;-76
2022/06/05 02:28:21;;;;;;;0.22;0.20;;;17.90;99.90;;;;;;5109886;28;20209;-76
2022/06/05 02:30:57;;;;;;;0.20;0.20;;;17.80;99.90;;;;;;5108135;28;20562;-76
2022/06/05 02:33:36;;;;;;;1.08;0.30;;;17.90;99.90;;;;;;5109803;28;20637;-76
2022/06/05 02:36:13;;;;;;;0.80;0.30;;;18.00;99.90;;;;;;5099290;28;20202;-76
2022/06/05 02:38:53;;;;;;;0.68;0.25;;;18.10;99.90;;;;;;5105876;28;20206;-76
2022/06/05 02:41:32;;;;;;;0.50;0.30;;;18.20;99.90;;;;;;5090521;28;20248;-75
2022/06/05 02:44:31;;;;;;;1.65;0.40;;;18.20;99.90;;;;;;5095025;28;20266;-75
2022/06/05 02:47:19;;;;;;;0.50;0.50;;;18.30;99.90;;;;;;5106421;28;20233;-75
2022/06/05 02:49:55;;;;;;;0.20;0.20;;;18.30;99.90;;;;;;5110368;28;20195;-76
2022/06/05 02:52:27;;;;;;;0.40;0.32;;;18.40;99.90;;;;;;5094842;28;20218;-75
2022/06/05 02:55:03;;;;;;;1.17;0.30;;;18.50;99.90;;;;;;5109203;28;20251;-75
2022/06/05 02:57:33;;;;;;;0.98;0.30;;;18.40;99.90;;;;;;5108062;28;20207;-76
2022/06/05 03:00:09;;;;;;;1.23;0.38;;;18.50;99.90;;;;;;5107379;28;20190;-76
2022/06/05 03:05:27;;;;;;;0.82;0.40;;;18.40;99.90;;;;;;5113040;28;20329;-77
2022/06/05 03:07:58;;;;;;;0.73;0.20;;;18.40;99.90;;;;;;5114477;28;20226;-76
2022/06/05 03:10:28;;;;;;;1.38;0.32;;;18.30;99.90;;;;;;5113706;28;20203;-77
2022/06/05 03:13:01;;;;;;;0.57;0.20;;;18.20;99.90;;;;;;5112869;28;20291;-77
2022/06/05 03:15:34;;;;;;;1.08;0.30;;;18.20;99.90;;;;;;5111116;28;20569;-77
2022/06/05 03:18:04;;;;;;;0.63;0.30;;;18.10;99.90;;;;;;5108427;28;20215;-74
2022/06/05 03:20:35;;;;;;;0.45;0.32;;;18.10;99.90;;;;;;5107625;28;20203;-74
2022/06/05 03:23:09;;;;;;;0.65;0.47;;;18.10;99.90;;;;;;5111464;28;20285;-74
2022/06/05 03:25:42;;;;;;;1.55;0.30;;;18.00;99.90;;;;;;5103682;28;20190;-74
2022/06/05 03:28:13;;;;;;;1.00;0.38;;;18.10;99.90;;;;;;5112074;28;20194;-75
2022/06/05 03:30:46;;;;;;;1.58;0.17;;;18.10;99.90;;;;;;5110828;28;20569;-74
2022/06/05 03:33:17;;;;;;;0.40;0.30;;;18.00;99.90;;;;;;5109265;28;20275;-75
2022/06/05 03:35:49;;;;;;;0.45;0.20;;;18.00;99.90;;;;;;5096608;28;20561;-75
2022/06/05 03:38:20;;;;;;;1.63;0.60;;;18.00;99.90;;;;;;5110386;28;20199;-75
2022/06/05 03:40:51;;;;;;;1.77;0.80;;;18.00;99.90;;;;;;5107567;28;20211;-75
2022/06/05 03:43:22;;;;;;;2.13;1.25;;;17.90;99.90;;;;;;5100588;28;20215;-75
2022/06/05 03:46:03;;;;;;;4.80;1.00;;;17.80;99.90;;;;;;5103012;28;20194;-76
2022/06/05 03:48:34;;;;;;;0.63;0.45;;;17.80;99.90;;;;;;5101703;28;20190;-78
2022/06/05 03:51:08;;;;;;;0.43;0.30;;;17.80;99.90;;;;;;5105593;28;20560;-77
2022/06/05 03:53:39;;;;;;;0.43;0.40;;;17.70;99.90;;;;;;5112969;28;20190;-77
2022/06/05 03:56:13;;;;;;;0.45;0.40;;;17.70;99.90;;;;;;5111716;28;20206;-77
2022/06/05 03:58:44;;;;;;;0.40;0.40;;;17.60;99.90;;;;;;5093273;28;20614;-77
2022/06/05 04:01:18;;;;;;;0.65;0.22;;;17.80;99.90;;;;;;5107214;28;20199;-78
2022/06/05 04:03:49;;;;;;;0.88;0.30;;;17.70;99.90;;;;;;5104845;27;20301;-77
2022/06/05 04:06:22;;;;;;;1.70;0.50;;;17.80;99.90;;;;;;5086207;28;20600;-78
2022/06/05 04:08:55;;;;;;;0.73;0.30;;;17.70;99.90;;;;;;5086149;28;20239;-77
2022/06/05 04:11:26;;;;;;;0.57;0.20;;;17.70;99.90;;;;;;5091164;28;20226;-77
2022/06/05 04:13:56;;;;;;;0.50;0.30;;;17.70;99.90;;;;;;5084090;28;20214;-77
2022/06/05 04:16:31;;;;;;;0.50;0.30;;;17.60;99.90;;;;;;5085031;28;20830;-77
2022/06/05 04:19:03;;;;;;;0.85;0.30;;;17.60;99.90;;;;;;5084872;28;20215;-77
2022/06/05 04:21:35;;;;;;;0.65;0.30;;;17.60;99.90;;;;;;5092760;28;20692;-77
2022/06/05 04:24:07;;;;;;;0.63;0.35;;;17.60;99.90;;;;;;5095968;28;20218;-76
2022/06/05 04:26:38;;;;;;;0.55;0.35;;;17.60;99.90;;;;;;5111683;28;20724;-76
2022/06/05 04:29:09;;;;;;;0.63;0.30;;;17.50;99.90;;;;;;5111744;28;20194;-75
2022/06/05 04:31:46;;;;;;;0.73;0.43;;;17.50;99.90;;;;;;5110671;28;20218;-76
2022/06/05 04:34:19;;;;;;;0.20;0.20;;;17.50;99.90;;;;;;5112251;28;20245;-75
2022/06/05 04:36:50;;;;;;;1.75;0.30;;;17.50;99.90;;;;;;5113078;28;20195;-76
2022/06/05 04:39:21;;;;;;;1.55;0.25;;;17.50;99.90;;;;;;5110777;28;20786;-76
2022/06/05 04:41:52;;;;;;;0.60;0.38;;;17.50;99.90;;;;;;5112769;28;20209;-77
2022/06/05 04:44:22;;;;;;;0.57;0.35;;;17.50;99.90;;;;;;5107861;28;20218;-75
2022/06/05 04:46:56;;;;;;;0.70;0.40;;;17.60;99.90;;;;;;5104604;28;20211;-76
2022/06/05 04:49:26;;;;;;;0.82;0.50;;;17.50;99.90;;;;;;5094225;28;20298;-75
2022/06/05 04:51:57;;;;;;;0.60;0.30;;;17.50;99.90;;;;;;5099086;28;20681;-76
2022/06/05 04:54:28;;;;;;;0.30;0.30;;;17.50;99.90;;;;;;5099155;28;22268;-76
2022/06/05 04:56:58;;;;;;;0.30;0.20;;;17.50;99.90;;;;;;5090368;28;20227;-76
2022/06/05 04:59:29;;;;;;;1.30;0.20;;;17.40;99.90;;;;;;5096059;28;20218;-76
2022/06/05 05:02:02;;;;;;;2.40;0.30;;;17.30;99.90;;;;;;5097440;28;20218;-76
2022/06/05 05:04:32;;;;;;;0.60;0.40;;;17.30;99.90;;;;;;5103129;28;20583;-76
2022/06/05 05:07:03;;;;;;;0.52;0.30;;;17.20;99.90;;;;;;5095946;28;20705;-75
2022/06/05 05:09:34;;;;;;;0.40;0.35;;;17.20;99.90;;;;;;5097062;28;20455;-75
2022/06/05 05:12:05;;;;;;;0.85;0.50;;;17.20;99.90;;;;;;5098976;28;20230;-75
2022/06/05 05:14:36;;;;;;;1.85;0.50;;;17.10;99.90;;;;;;5092689;28;20341;-75
2022/06/05 05:17:08;;;;;;;0.17;0.15;;;17.10;99.90;;;;;;5084371;28;20223;-75
2022/06/05 05:19:39;;;;;;;0.55;0.32;;;17.10;99.90;;;;;;5082863;28;20222;-76
2022/06/05 05:22:10;;;;;;;2.80;1.90;;;17.00;99.90;;;;;;5085763;28;22485;-76
2022/06/05 05:24:40;;;;;;;1.35;1.23;;;17.00;99.90;;;;;;5083873;28;20219;-76
2022/06/05 05:27:11;;;;;;;2.05;0.40;;;17.00;99.90;;;;;;5080929;28;20215;-75
2022/06/05 05:29:43;;;;;;;1.67;1.40;;;16.90;99.90;;;;;;5080356;28;20701;-75
2022/06/05 05:32:16;;;;;;;0.43;0.40;;;16.90;99.90;;;;;;5097338;28;20226;-75
2022/06/05 05:34:47;;;;;;;1.10;0.52;;;16.90;99.90;;;;;;5090530;28;20226;-77
2022/06/05 05:37:17;;;;;;;1.05;0.40;;;16.80;99.90;;;;;;5081312;28;20218;-76
2022/06/05 05:42:35;;;;;;;0.30;0.30;;;16.90;99.90;;;;;;5091479;28;20342;-76
2022/06/05 05:45:07;;;;;;;0.70;0.50;;;16.80;99.90;;;;;;5086590;28;20222;-75
2022/06/05 05:47:39;;;;;;;0.57;0.50;;;16.80;99.90;;;;;;5093817;28;20212;-75
2022/06/05 05:50:13;;;;;;;1.20;0.52;;;16.70;99.90;;;;;;5093399;28;20222;-75
2022/06/05 05:52:43;;;;;;;0.40;0.40;;;16.70;99.90;;;;;;5088515;28;20649;-75
2022/06/05 05:55:18;;;;;;;0.35;0.30;;;16.80;99.90;;;;;;5096722;27;20222;-76
2022/06/05 05:57:50;;;;;;;1.13;0.30;;;16.80;99.90;;;;;;5094339;28;20217;-75
2022/06/05 06:00:22;;;;;;;0.82;0.50;;;16.70;99.90;;;;;;5091811;28;20739;-75
2022/06/05 06:02:55;;;;;;;0.30;0.28;;;16.70;99.90;;;;;;5093789;28;20230;-76
2022/06/05 06:05:25;;;;;;;1.10;0.40;;;16.70;99.90;;;;;;5093817;28;20211;-77
2022/06/05 06:07:56;;;;;;;0.88;0.30;;;16.60;99.90;;;;;;5102011;28;20223;-79
2022/06/05 06:10:27;;;;;;;0.43;0.30;;;16.70;99.90;;;;;;5094393;28;20218;-76
2022/06/05 06:12:57;;;;;;;1.45;0.40;;;16.70;99.90;;;;;;5100845;28;20219;-75
2022/06/05 06:15:28;;;;;;;0.55;0.40;;;16.70;99.90;;;;;;5109947;28;20255;-74
2022/06/05 06:18:00;;;;;;;3.90;1.70;;;16.60;99.90;;;;;;5098095;28;20653;-75
2022/06/05 06:20:31;;;;;;;1.55;1.10;;;16.60;99.90;;;;;;5115079;27;20199;-74
2022/06/05 06:23:02;;;;;;;1.30;1.20;;;16.60;99.90;;;;;;5111099;28;20248;-74
2022/06/05 06:25:32;;;;;;;2.05;1.20;;;16.60;99.90;;;;;;5109142;28;20191;-75
2022/06/05 06:28:03;;;;;;;1.40;1.30;;;16.60;99.90;;;;;;5106270;28;20195;-74
2022/06/05 06:30:35;;;;;;;1.20;0.82;;;16.60;99.90;;;;;;5100071;28;20195;-74
2022/06/05 06:33:08;;;;;;;3.05;1.88;;;16.60;99.90;;;;;;5110483;28;20237;-74
2022/06/05 06:35:39;;;;;;;1.17;1.08;;;16.50;99.90;;;;;;5090210;28;20199;-74
2022/06/05 06:38:10;;;;;;;1.65;1.10;;;16.50;99.90;;;;;;5108087;28;20263;-73
2022/06/05 06:40:41;;;;;;;0.88;0.47;;;16.40;99.90;;;;;;5113919;28;20251;-74
2022/06/05 06:43:11;;;;;;;0.93;0.40;;;16.40;99.90;;;;;;5114378;28;20205;-75
2022/06/05 06:45:42;;;;;;;0.55;0.55;;;16.40;99.90;;;;;;5112888;28;20281;-75
2022/06/05 06:48:14;;;;;;;1.17;0.90;;;16.40;99.90;;;;;;5114552;28;20672;-75
2022/06/05 06:50:45;;;;;;;2.20;2.00;;;16.30;99.90;;;;;;5112968;27;20201;-74
2022/06/05 06:53:17;;;;;;;2.97;2.00;;;16.30;99.90;;;;;;5114233;28;20230;-75
2022/06/05 06:55:48;;;;;;;1.58;0.85;;;16.30;99.90;;;;;;5111588;28;20572;-74
2022/06/05 06:58:19;;;;;;;1.48;0.45;;;16.20;99.90;;;;;;5114362;28;20330;-75
2022/06/05 07:00:50;;;;;;;1.85;1.30;;;16.20;99.90;;;;;;5106538;28;20194;-75
2022/06/05 07:03:22;;;;;;;1.10;1.00;;;16.20;99.90;;;;;;5112317;28;20237;-75
2022/06/05 07:05:53;;;;;;;1.90;1.33;;;16.10;99.90;;;;;;5113041;28;20198;-75
2022/06/05 07:08:24;;;;;;;2.00;1.80;;;16.10;99.90;;;;;;5114399;28;20272;-75
2022/06/05 07:10:54;;;;;;;1.48;1.15;;;16.00;99.90;;;;;;5114725;28;20214;-75
2022/06/05 07:13:25;;;;;;;1.35;1.10;;;16.10;99.90;;;;;;5114777;28;20711;-75
2022/06/05 07:15:56;;;;;;;4.75;3.08;;;16.00;99.90;;;;;;5114113;28;20557;-74
2022/06/05 07:18:28;;;;;;;1.85;1.33;;;16.00;99.90;;;;;;5113746;28;20198;-73
2022/06/05 07:20:59;;;;;;;0.70;0.60;;;15.90;99.90;;;;;;5114550;28;20203;-75
2022/06/05 07:23:30;;;;;;;2.30;1.50;;;15.90;99.90;;;;;;5112716;28;20256;-75
2022/06/05 07:26:00;;;;;;;3.25;1.20;;;15.90;99.90;;;;;;5111612;28;20558;-77
2022/06/05 07:28:31;;;;;;;2.45;2.20;;;15.90;99.90;;;;;;5114037;28;20202;-78
2022/06/05 07:31:03;;;;;;;1.33;1.00;;;15.80;99.90;;;;;;5111911;28;20203;-77
2022/06/05 07:33:37;;;;;;;1.40;1.13;;;15.80;99.90;;;;;;5114060;28;20225;-77
2022/06/05 07:36:10;;;;;;;4.68;3.70;;;15.80;99.90;;;;;;5114040;28;20190;-77
2022/06/05 07:38:43;;;;;;;12.40;10.07;;;15.80;99.90;;;;;;5110005;28;20199;-77
2022/06/05 07:41:19;;;;;;;3.92;3.58;;;15.80;99.90;;;;;;5113547;28;20255;-77
2022/06/05 07:43:50;;;;;;;1.33;1.00;;;15.70;99.90;;;;;;5110900;28;20371;-77
2022/06/05 07:46:22;;;;;;;2.08;1.58;;;15.80;99.90;;;;;;5111652;28;20207;-76
2022/06/05 07:48:54;;;;;;;2.78;2.40;;;15.70;99.90;;;;;;5113165;28;20198;-76
2022/06/05 07:54:30;;;;;;;0.75;0.75;;;15.60;99.90;;;;;;5112552;28;20237;-77
2022/06/05 07:57:03;;;;;;;0.50;0.50;;;15.70;99.90;;;;;;5112218;28;20298;-75
2022/06/05 07:59:36;;;;;;;0.50;0.50;;;15.70;99.90;;;;;;5113507;28;20601;-75
2022/06/05 08:02:14;;;;;;;0.80;0.70;;;15.60;99.90;;;;;;5111182;28;20614;-76
2022/06/05 08:04:47;;;;;;;1.13;0.70;;;15.60;99.90;;;;;;5113495;28;20664;-74
2022/06/05 08:07:20;;;;;;;1.20;0.70;;;15.60;99.90;;;;;;5113190;27;20230;-74
2022/06/05 08:09:52;;;;;;;0.68;0.60;;;15.60;99.90;;;;;;5113053;28;20534;-74
2022/06/05 08:12:24;;;;;;;0.82;0.70;;;15.60;99.90;;;;;;5111785;28;20205;-75
2022/06/05 08:14:56;;;;;;;1.33;1.00;;;15.50;99.90;;;;;;5112816;28;20209;-75
2022/06/05 08:17:28;;;;;;;1.35;0.70;;;15.50;99.90;;;;;;5112361;28;20210;-74
2022/06/05 08:20:01;;;;;;;1.27;0.80;;;15.50;99.90;;;;;;5113045;28;20207;-74
2022/06/05 08:22:32;;;;;;;1.85;0.43;;;15.50;99.90;;;;;;5111261;28;20237;-74
2022/06/05 08:25:03;;;;;;;0.50;0.50;;;15.50;99.90;;;;;;5112856;28;20259;-76
2022/06/05 08:27:35;;;;;;;0.95;0.70;;;15.50;99.90;;;;;;5111957;28;20202;-75
2022/06/05 08:30:06;;;;;;;4.22;3.83;;;15.40;99.90;;;;;;5108335;28;20187;-76
2022/06/05 08:32:37;;;;;;;2.92;2.22;;;15.40;99.90;;;;;;5109545;28;20202;-75
2022/06/05 08:35:10;;;;;;;2.15;1.65;;;15.40;99.90;;;;;;5112537;28;20194;-74
2022/06/05 08:43:33;;;;;;;1.15;0.65;;;15.40;99.90;;;;;;5112894;28;20201;-75
2022/06/05 08:46:10;;;;;;;1.33;0.70;;;15.30;99.90;;;;;;5110248;28;20195;-75
2022/06/05 08:48:46;;;;;;;1.95;0.60;;;15.30;99.90;;;;;;5112195;28;20240;-75
2022/06/05 08:51:40;;;;;;;1.10;0.60;;;15.30;99.90;;;;;;5112465;28;20461;-75
2022/06/05 08:54:16;;;;;;;1.27;0.65;;;15.30;99.90;;;;;;5107613;28;20616;-75
2022/06/05 08:56:49;;;;;;;0.70;0.50;;;15.30;99.90;;;;;;5112559;28;20202;-75
2022/06/05 08:59:26;;;;;;;0.50;0.40;;;15.30;99.90;;;;;;5112230;28;20199;-75
2022/06/05 09:02:03;;;;;;;0.60;0.43;;;15.30;99.90;;;;;;5108561;28;20208;-75
2022/06/05 09:04:47;;;;;;;1.30;0.80;;;15.20;99.90;;;;;;5111975;28;20205;-75
2022/06/05 09:07:25;;;;;;;1.33;0.80;;;15.20;99.90;;;;;;5110694;28;20234;-81
2022/06/05 09:10:02;;;;;;;0.68;0.57;;;15.20;99.90;;;;;;5109931;28;20190;-75
2022/06/05 09:12:41;;;;;;;1.10;0.90;;;15.20;99.90;;;;;;5112145;28;20194;-77
2022/06/05 09:15:18;;;;;;;3.30;3.00;;;15.20;99.90;;;;;;5112744;28;20202;-77
2022/06/05 09:17:56;;;;;;;1.75;1.38;;;15.20;99.90;;;;;;5110700;28;20285;-77
2022/06/05 09:20:36;;;;;;;1.70;1.50;;;15.10;99.90;;;;;;5112529;28;20190;-77
2022/06/05 09:23:19;;;;;;;1.90;1.55;;;15.10;99.90;;;;;;5111733;28;20677;-75
2022/06/05 09:26:02;;;;;;;0.75;0.75;;;15.10;99.90;;;;;;5111739;28;20198;-77
2022/06/05 09:28:54;;;;;;;0.70;0.70;;;15.00;99.90;;;;;;5109195;28;20199;-74
2022/06/05 09:31:45;;;;;;;0.40;0.40;;;15.00;99.90;;;;;;5105648;28;20203;-74
2022/06/05 09:34:17;;;;;;;0.93;0.60;;;15.00;99.90;;;;;;5111337;28;20218;-74
2022/06/05 09:36:57;;;;;;;0.82;0.70;;;15.00;99.90;;;;;;5109819;28;20426;-75
2022/06/05 09:39:35;;;;;;;0.80;0.80;;;15.00;99.90;;;;;;5107832;28;20198;-75
2022/06/05 09:42:40;;;;;;;0.85;0.50;;;15.10;99.90;;;;;;5111429;28;20239;-74
2022/06/05 09:45:23;;;;;;;0.73;0.60;;;15.00;99.90;;;;;;5074906;28;20210;-74
2022/06/05 09:48:04;;;;;;;0.77;0.70;;;15.00;99.90;;;;;;5110889;28;20205;-74
2022/06/05 09:50:35;;;;;;;1.48;0.63;;;14.90;99.90;;;;;;5111286;28;20267;-74
2022/06/05 09:53:06;;;;;;;0.93;0.63;;;14.90;99.90;;;;;;5111253;28;20222;-74
2022/06/05 09:55:55;;;;;;;0.60;0.60;;;14.90;99.90;;;;;;5101133;28;20191;-75
2022/06/05 09:58:49;;;;;;;0.50;0.50;;;14.80;99.90;;;;;;5111611;28;20233;-76
2022/06/05 10:01:31;;;;;;;0.77;0.73;;;14.80;99.90;;;;;;5108650;27;20202;-76
2022/06/05 10:04:06;;;;;;;0.85;0.50;;;14.80;99.90;;;;;;5110946;28;20252;-76
2022/06/05 10:06:42;;;;;;;0.80;0.60;;;14.80;99.90;;;;;;5099842;28;20213;-75
2022/06/05 10:09:16;;;;;;;1.15;0.65;;;14.80;99.90;;;;;;5090584;28;20203;-75
2022/06/05 10:11:58;;;;;;;1.02;0.80;;;14.80;99.90;;;;;;5090246;28;20339;-75
2022/06/05 10:14:50;;;;;;;1.08;0.50;;;14.80;99.90;;;;;;5101758;28;20669;-76
2022/06/05 10:17:50;;;;;;;0.93;0.80;;;14.70;99.90;;;;;;5108102;28;20226;-75
2022/06/05 10:20:50;;;;;;;0.55;0.55;;;14.80;99.90;;;;;;5099959;28;20715;-76
2022/06/05 10:23:43;;;;;;;0.95;0.30;;;14.60;99.90;;;;;;5110796;28;20199;-76
2022/06/05 10:26:34;;;;;;;0.40;0.40;;;14.60;99.90;;;;;;5110745;28;20195;-75
2022/06/05 10:29:22;;;;;;;0.65;0.43;;;14.60;99.90;;;;;;5109777;28;20207;-75
2022/06/05 10:32:00;;;;;;;1.25;0.60;;;14.60;99.90;;;;;;5108367;28;20628;-76
2022/06/05 10:34:41;;;;;;;1.15;0.73;;;14.50;99.90;;;;;;5101046;28;20226;-76
2022/06/05 10:37:24;;;;;;;1.52;1.10;;;14.50;99.90;;;;;;5108329;28;20190;-73
2022/06/05 10:40:09;;;;;;;1.08;0.70;;;14.50;99.90;;;;;;5107210;28;20744;-73
2022/06/05 10:43:02;;;;;;;1.05;0.60;;;14.40;99.90;;;;;;5110463;28;20201;-73
2022/06/05 10:45:45;;;;;;;0.50;0.47;;;14.50;99.90;;;;;;5108291;28;20198;-73
2022/06/05 10:48:29;;;;;;;0.50;0.50;;;14.50;99.90;;;;;;5098639;28;20198;-73
2022/06/05 10:51:05;;;;;;;3.13;0.88;;;14.50;99.90;;;;;;5110668;28;20559;-72
2022/06/05 10:53:44;;;;;;;0.80;0.68;;;14.50;99.90;;;;;;5110224;28;20225;-73
2022/06/05 10:56:28;;;;;;;0.65;0.57;;;14.50;99.90;;;;;;5091474;28;20195;-73
2022/06/05 10:59:10;;;;;;;0.70;0.52;;;14.40;99.90;;;;;;5090161;28;20206;-73
2022/06/05 11:02:08;;;;;;;1.75;0.75;;;14.40;99.90;;;;;;5098359;28;20194;-74
2022/06/05 11:04:50;;;;;;;0.95;0.65;;;14.40;99.90;;;;;;5105795;27;20609;-73
2022/06/05 11:07:45;;;;;;;0.50;0.50;;;14.40;99.90;;;;;;5110399;28;20241;-73
2022/06/05 11:16:20;;;;;;;2.53;1.90;;;14.30;99.90;;;;;;5104477;28;20198;-73
2022/06/05 11:19:04;;;;;;;1.00;0.88;;;14.30;99.90;;;;;;5110379;28;20627;-73
2022/06/05 11:21:35;;;;;;;0.65;0.50;;;14.30;99.90;;;;;;5110475;28;20224;-73
2022/06/05 11:24:12;;;;;;;0.77;0.75;;;14.20;99.90;;;;;;5111576;28;20657;-73
2022/06/05 11:26:53;;;;;;;0.50;0.40;;;14.20;99.90;;;;;;5113902;28;20206;-73
2022/06/05 11:29:30;;;;;;;0.57;0.55;;;14.20;99.90;;;;;;5111225;28;20194;-73
2022/06/05 11:32:22;;;;;;;0.80;0.70;;;14.10;99.90;;;;;;5109710;28;20263;-73
2022/06/05 11:35:03;;;;;;;0.55;0.43;;;14.10;99.90;;;;;;5109263;28;20218;-73
2022/06/05 11:37:48;;;;;;;0.60;0.45;;;14.10;99.90;;;;;;5097385;28;20195;-72
2022/06/05 11:40:29;;;;;;;0.50;0.50;;;14.10;99.90;;;;;;5109687;28;20194;-74
2022/06/05 11:43:20;;;;;;;0.68;0.40;;;14.10;99.90;;;;;;5113497;28;20202;-74
2022/06/05 11:45:56;;;;;;;0.50;0.50;;;14.00;99.90;;;;;;5111548;28;21160;-74
2022/06/05 11:48:32;;;;;;;0.65;0.43;;;14.10;99.90;;;;;;5103853;28;20194;-74
2022/06/05 11:51:13;;;;;;;0.60;0.40;;;14.10;99.90;;;;;;5113566;28;20194;-73
2022/06/05 11:53:54;;;;;;;0.45;0.40;;;14.00;99.90;;;;;;5113730;28;20218;-73
2022/06/05 11:56:40;;;;;;;0.52;0.30;;;14.10;99.90;;;;;;5103361;28;20195;-73
2022/06/05 11:59:25;;;;;;;0.30;0.30;;;14.00;99.90;;;;;;5113474;28;20257;-73
2022/06/05 12:02:00;;;;;;;1.00;0.50;;;14.10;99.90;;;;;;5107201;28;20207;-73
2022/06/05 12:04:43;;;;;;;0.40;0.40;;;14.00;99.90;;;;;;5107859;28;20195;-75
2022/06/05 12:07:17;;;;;;;1.00;0.40;;;14.00;99.90;;;;;;5113458;28;20276;-76
2022/06/05 12:09:52;;;;;;;1.23;0.40;;;13.90;99.90;;;;;;5099057;28;20203;-77
2022/06/05 12:12:27;;;;;;;0.30;0.30;;;13.90;99.90;;;;;;5093750;28;20601;-77
2022/06/05 12:15:06;;;;;;;0.88;0.38;;;13.90;99.90;;;;;;5113414;28;20226;-76
2022/06/05 12:17:42;;;;;;;0.40;0.40;;;13.80;99.90;;;;;;5109255;28;20190;-77
2022/06/05 12:20:18;;;;;;;1.65;0.30;;;13.90;99.90;;;;;;5110800;28;20255;-76
2022/06/05 12:22:56;;;;;;;0.50;0.40;;;13.80;99.90;;;;;;5113317;28;20251;-77
2022/06/05 12:25:31;;;;;;;0.60;0.50;;;13.70;99.90;;;;;;5113862;28;20248;-77
2022/06/05 12:28:05;;;;;;;1.05;0.30;;;13.80;99.90;;;;;;5105530;28;20285;-77
2022/06/05 12:30:38;;;;;;;1.42;0.30;;;13.80;99.90;;;;;;5109635;28;20279;-77
2022/06/05 12:33:17;;;;;;;0.65;0.30;;;13.90;99.90;;;;;;5111927;28;20202;-76
2022/06/05 12:35:52;;;;;;;0.30;0.30;;;13.80;99.90;;;;;;5104489;28;20731;-76
2022/06/05 12:38:36;;;;;;;0.17;0.17;;;13.70;99.90;;;;;;5112911;28;20235;-77
2022/06/05 12:41:16;;;;;;;0.50;0.30;;;13.70;99.90;;;;;;5109520;28;20198;-76
2022/06/05 12:44:04;;;;;;;0.20;0.20;;;13.70;99.90;;;;;;5112907;28;20277;-77
2022/06/05 12:46:42;;;;;;;1.10;0.30;;;13.70;99.90;;;;;;5102498;28;20283;-77
2022/06/05 12:49:28;;;;;;;0.22;0.22;;;13.70;99.90;;;;;;5111618;28;20562;-77
2022/06/05 12:52:22;;;;;;;0.45;0.20;;;13.70;99.90;;;;;;5112977;28;20203;-78
2022/06/05 12:54:57;;;;;;;0.20;0.20;;;13.60;99.90;;;;;;5104492;28;20230;-78
2022/06/05 12:57:31;;;;;;;0.28;0.28;;;13.60;99.90;;;;;;5111320;28;20228;-78
2022/06/05 13:00:05;;;;;;;0.52;0.30;;;13.60;99.90;;;;;;5098529;28;20195;-75
2022/06/05 13:02:42;;;;;;;0.82;0.38;;;13.60;99.90;;;;;;5105835;28;20203;-76
2022/06/05 13:05:23;;;;;;;0.40;0.22;;;13.70;99.90;;;;;;5112228;28;20198;-75
2022/06/05 13:08:00;;;;;;;0.38;0.28;;;13.70;99.90;;;;;;5112342;28;20571;-75
2022/06/05 13:10:40;;;;;;;0.25;0.20;;;13.70;99.90;;;;;;5112036;28;20202;-75
2022/06/05 13:13:30;;;;;;;0.52;0.30;;;13.70;99.90;;;;;;5099842;28;20278;-74
2022/06/05 13:16:05;;;;;;;0.22;0.20;;;13.70;99.90;;;;;;5109867;28;20227;-73
2022/06/05 13:18:42;;;;;;;2.08;0.30;;;13.80;99.90;;;;;;5111788;28;20194;-73
2022/06/05 13:21:22;;;;;;;0.20;0.20;;;13.70;99.90;;;;;;5099894;28;20229;-77
2022/06/05 13:24:03;;;;;;;0.45;0.20;;;13.70;99.90;;;;;;5106629;28;20198;-76
2022/06/05 13:26:58;;;;;;;1.55;0.20;;;13.70;99.90;;;;;;5110337;28;20198;-76
2022/06/05 13:29:40;;;;;;;0.20;0.20;;;13.70;99.90;;;;;;5093890;28;20199;-76
2022/06/05 13:32:15;;;;;;;0.38;0.30;;;13.70;99.90;;;;;;5103660;28;20187;-76
2022/06/05 13:34:51;;;;;;;0.47;0.30;;;13.80;99.90;;;;;;5091403;28;20226;-77
2022/06/05 13:37:30;;;;;;;0.65;0.20;;;13.70;99.90;;;;;;5092098;28;20246;-76
2022/06/05 13:40:07;;;;;;;0.20;0.20;;;13.80;99.90;;;;;;5107145;28;20243;-75
2022/06/05 13:42:43;;;;;;;0.20;0.20;;;13.80;99.90;;;;;;5101116;28;20264;-78
2022/06/05 13:45:28;;;;;;;0.20;0.20;;;13.80;99.90;;;;;;5104249;28;20568;-77
2022/06/05 13:48:08;;;;;;;0.55;0.28;;;13.70;99.90;;;;;;5106468;28;20202;-76
2022/06/05 13:50:51;;;;;;;0.38;0.20;;;13.70;99.90;;;;;;5095433;28;20223;-77
2022/06/05 13:53:25;;;;;;;0.32;0.10;;;13.70;99.90;;;;;;5093761;28;20211;-77